KSUS/SUS METAR and TAF weather

Enter ICAO airport designator
Station Type Date Time Source
KSUS METAR 2023/01/30 10:54 UTC NOAA

KSUS 301054Z 35008KT 3SM -SN BR SCT012 SCT018 OVC034 M07/M09 A3035 RMK AO2 SLP289 P0000 T10721089


Station Type Date Time Source
KSUS Decoded METAR 2023/01/30 10:54 UTC NOAA

SPIRIT OF ST. LOUIS AIRPORT , MO, United States (KSUS) 38-39N 090-39W 141M
Jan 30, 2023 - 05:54 AM EST / 2023.01.30 1054 UTC
Wind: from the N (350 degrees) at 9 MPH (8 KT):0
Visibility: 3 mile(s):0
Sky conditions: overcast
Weather: light snow; mist
Precipitation last hour: A trace
Temperature: 19.0 F (-7.2 C)
Windchill: 8 F (-13 C):1
Dew Point: 16.0 F (-8.9 C)
Relative Humidity: 87%
Pressure (altimeter): 30.35 in. Hg (1027 hPa)
ob: KSUS 301054Z 35008KT 3SM -SN BR SCT012 SCT018 OVC034 M07/M09 A3035 RMK AO2 SLP289 P0000 T10721089
cycle: 11

Station Type Date Time Source
KSUS TAF 2023/01/30 10:06 UTC NOAA

TAF
AMD KSUS 301004Z 3010/3106 35009KT 3SM -SN BR OVC015
TEMPO 3010/3012 SCT015 BKN025
FM301200 34011KT P6SM SCT008 OVC012
FM301400 35009KT P6SM OVC025
FM301900 36009KT P6SM BKN040

Example: see airport list